Time;durP1;ratioP1;P1;durP2;ratioP2;P2;SDS_P1;SDS_P2;PMS_P1;PMS_P2;Temp;Humidity;BMP_temperature;BMP_pressure;BME280_temperature;BME280_humidity;BME280_pressure;Samples;Min_cycle;Max_cycle;Signal;HPM_P1;HPM_P2
2021/12/03 00:00:30;;;;;;;;;;;0.00;99.90;;;;;;5013406;28;20011;-70
2021/12/03 00:02:56;;;;;;;;;;;0.10;99.90;;;;;;5012908;28;20008;-70
2021/12/03 00:05:23;;;;;;;;;;;0.00;99.90;;;;;;5012476;28;19929;-70
2021/12/03 00:07:50;;;;;;;;;;;0.10;99.90;;;;;;5012483;28;21128;-70
2021/12/03 00:10:20;;;;;;;;;;;0.00;99.90;;;;;;5012820;28;19929;-71
2021/12/03 00:12:47;;;;;;;;;;;0.00;99.90;;;;;;5014443;28;19969;-71
2021/12/03 00:15:15;;;;;;;;;;;0.00;99.90;;;;;;5013024;28;19941;-70
2021/12/03 00:17:42;;;;;;;;;;;0.00;99.90;;;;;;5011985;28;19929;-70
2021/12/03 00:20:11;;;;;;;;;;;0.00;99.90;;;;;;5013067;28;20012;-70
2021/12/03 00:22:38;;;;;;;;;;;0.00;99.90;;;;;;5012538;28;19941;-71
2021/12/03 00:25:05;;;;;;;;;;;0.00;99.90;;;;;;5013229;28;20020;-70
2021/12/03 00:27:32;;;;;;;;;;;0.00;99.90;;;;;;5012065;28;20019;-71
2021/12/03 00:29:58;;;;;;;;;;;0.10;99.90;;;;;;4993526;28;19936;-72
2021/12/03 00:32:27;;;;;;;;;;;0.10;99.90;;;;;;5011719;28;19928;-70
2021/12/03 00:34:53;;;;;;;;;;;0.10;99.90;;;;;;5012852;28;19933;-70
2021/12/03 00:37:20;;;;;;;;;;;0.10;99.90;;;;;;5012762;28;20369;-71
2021/12/03 00:39:47;;;;;;;;;;;0.10;99.90;;;;;;5012744;28;20009;-70
2021/12/03 00:42:16;;;;;;;;;;;0.20;99.90;;;;;;5012429;28;19929;-70
2021/12/03 00:44:44;;;;;;;;;;;0.20;99.90;;;;;;5012052;28;20040;-70
2021/12/03 00:47:11;;;;;;;;;;;0.20;99.90;;;;;;5012059;28;19933;-70
2021/12/03 00:49:40;;;;;;;;;;;0.20;99.90;;;;;;5012352;28;20009;-70
2021/12/03 00:52:07;;;;;;;;;;;0.30;99.90;;;;;;5011395;28;20119;-70
2021/12/03 00:54:33;;;;;;;;;;;0.30;99.90;;;;;;5011561;28;19976;-71
2021/12/03 00:57:00;;;;;;;;;;;0.30;99.90;;;;;;5012415;28;19928;-71
2021/12/03 00:59:27;;;;;;;;;;;0.30;99.90;;;;;;5012482;28;20796;-70
2021/12/03 01:01:54;;;;;;;;;;;0.40;99.90;;;;;;5011941;28;19941;-70
2021/12/03 01:04:20;;;;;;;;;;;0.40;99.90;;;;;;5011469;28;19929;-70
2021/12/03 01:06:49;;;;;;;;;;;0.40;99.90;;;;;;5012714;28;19929;-70
2021/12/03 01:09:16;;;;;;;;;;;0.40;99.90;;;;;;5010321;28;19944;-70
2021/12/03 01:11:42;;;;;;;;;;;0.50;99.90;;;;;;5011406;28;19953;-70
2021/12/03 01:14:09;;;;;;;;;;;0.50;99.90;;;;;;5011723;28;19939;-70
2021/12/03 01:16:36;;;;;;;;;;;0.50;99.90;;;;;;5012046;28;20012;-70
2021/12/03 01:19:03;;;;;;;;;;;0.60;99.90;;;;;;4992740;28;19929;-69
2021/12/03 01:21:31;;;;;;;;;;;0.60;99.90;;;;;;5010433;28;19929;-70
2021/12/03 01:23:59;;;;;;;;;;;0.60;99.90;;;;;;5010745;28;19936;-71
2021/12/03 01:26:26;;;;;;;;;;;0.70;99.90;;;;;;5011183;28;20012;-71
2021/12/03 01:28:52;;;;;;;;;;;0.70;99.90;;;;;;5014263;28;19936;-70
2021/12/03 01:31:19;;;;;;;;;;;0.90;99.90;;;;;;5015354;28;19929;-70
2021/12/03 01:33:47;;;;;;;;;;;0.90;99.90;;;;;;5014475;28;19959;-70
2021/12/03 01:36:14;;;;;;;;;;;1.00;99.90;;;;;;5014647;28;19929;-70
2021/12/03 01:38:40;;;;;;;;;;;1.10;99.90;;;;;;5015330;28;19933;-70
2021/12/03 01:41:09;;;;;;;;;;;1.20;99.90;;;;;;5015013;28;20578;-71
2021/12/03 01:43:36;;;;;;;;;;;1.20;99.90;;;;;;5016163;28;19929;-70
2021/12/03 01:46:04;;;;;;;;;;;1.30;99.90;;;;;;5016626;28;19929;-70
2021/12/03 01:48:31;;;;;;;;;;;1.50;99.90;;;;;;5016140;28;19929;-70
2021/12/03 01:50:58;;;;;;;;;;;1.50;99.90;;;;;;5015994;28;19933;-70
2021/12/03 01:53:26;;;;;;;;;;;1.60;99.90;;;;;;5015905;28;19929;-71
2021/12/03 01:55:54;;;;;;;;;;;1.60;99.90;;;;;;5016721;28;19929;-70
2021/12/03 01:58:22;;;;;;;;;;;1.70;99.90;;;;;;5015983;28;19937;-70
2021/12/03 02:00:51;;;;;;;;;;;1.70;99.90;;;;;;5015437;28;19929;-70
2021/12/03 02:03:19;;;;;;;;;;;1.80;99.90;;;;;;5016982;28;20056;-70
2021/12/03 02:05:46;;;;;;;;;;;1.80;99.90;;;;;;5016182;28;19929;-71
2021/12/03 02:08:13;;;;;;;;;;;1.90;99.90;;;;;;5015715;28;19933;-71
2021/12/03 02:10:40;;;;;;;;;;;1.90;99.90;;;;;;5015412;28;19936;-69
2021/12/03 02:13:08;;;;;;;;;;;1.90;99.90;;;;;;5016835;28;19929;-70
2021/12/03 02:15:36;;;;;;;;;;;2.00;99.90;;;;;;5015219;28;19937;-70
2021/12/03 02:18:03;;;;;;;;;;;2.00;99.90;;;;;;5015516;28;20013;-70
2021/12/03 02:20:30;;;;;;;;;;;2.10;99.90;;;;;;5015454;28;20432;-70
2021/12/03 02:22:58;;;;;;;;;;;2.10;99.90;;;;;;5015588;28;19933;-68
2021/12/03 02:25:27;;;;;;;;;;;2.10;99.90;;;;;;5015160;28;19930;-68
2021/12/03 02:27:56;;;;;;;;;;;2.20;99.90;;;;;;5014605;28;19929;-68
2021/12/03 02:30:23;;;;;;;;;;;2.20;99.90;;;;;;5014998;28;19929;-68
2021/12/03 02:32:51;;;;;;;;;;;2.20;99.90;;;;;;5014462;28;20203;-68
2021/12/03 02:35:18;;;;;;;;;;;2.20;99.90;;;;;;5015346;28;20400;-68
2021/12/03 02:37:45;;;;;;;;;;;2.30;99.90;;;;;;5015649;28;19929;-68
2021/12/03 02:40:14;;;;;;;;;;;2.30;99.90;;;;;;5014561;28;20335;-68
2021/12/03 02:42:41;;;;;;;;;;;2.30;99.90;;;;;;5013837;28;20503;-68
2021/12/03 02:45:09;;;;;;;;;;;2.40;99.90;;;;;;5014884;28;20621;-68
2021/12/03 02:47:36;;;;;;;;;;;2.40;99.90;;;;;;5014337;28;19952;-68
2021/12/03 02:50:04;;;;;;;;;;;2.40;99.90;;;;;;5008601;28;19948;-68
2021/12/03 02:52:30;;;;;;;;;;;2.40;99.90;;;;;;5013164;28;20525;-68
2021/12/03 02:54:57;;;;;;;;;;;2.40;99.90;;;;;;5014530;28;19945;-68
2021/12/03 02:57:26;;;;;;;;;;;2.40;99.90;;;;;;5014114;28;19940;-68
2021/12/03 02:59:52;;;;;;;;;;;2.50;99.90;;;;;;5015441;28;19929;-68
2021/12/03 03:02:19;;;;;;;;;;;2.50;99.90;;;;;;5014363;28;20281;-69
2021/12/03 03:04:46;;;;;;;;;;;2.50;99.90;;;;;;5013507;28;20450;-69
2021/12/03 03:07:13;;;;;;;;;;;2.50;99.90;;;;;;5015090;28;19928;-69
2021/12/03 03:09:43;;;;;;;;;;;2.50;99.90;;;;;;5014241;28;19936;-69
2021/12/03 03:12:10;;;;;;;120.57;35.60;;;2.50;99.90;;;;;;5013162;28;20404;-69
2021/12/03 03:14:44;;;;;;;123.07;35.83;;;2.50;99.90;;;;;;5013887;28;20940;-69
2021/12/03 03:17:11;;;;;;;117.97;37.23;;;2.60;99.90;;;;;;5015000;28;21564;-69
2021/12/03 03:19:38;;;;;;;106.47;35.50;;;2.60;99.90;;;;;;5013302;28;20217;-69
2021/12/03 03:22:05;;;;;;;119.43;36.87;;;2.60;99.90;;;;;;4993513;28;20595;-69
2021/12/03 03:24:32;;;;;;;129.60;40.20;;;2.60;99.90;;;;;;5012153;28;20225;-69
2021/12/03 03:27:00;;;;;;;138.00;38.43;;;2.60;99.90;;;;;;5011939;28;20232;-69
2021/12/03 03:29:28;;;;;;;132.13;36.80;;;2.60;99.90;;;;;;5013409;28;20317;-69
2021/12/03 03:31:56;;;;;;;148.80;39.03;;;2.60;99.90;;;;;;5012517;28;20221;-69
2021/12/03 03:34:23;;;;;;;123.67;36.33;;;2.60;99.90;;;;;;5014267;28;20237;-69
2021/12/03 03:36:50;;;;;;;122.67;34.10;;;2.60;99.90;;;;;;5014804;28;20222;-69
2021/12/03 03:39:19;;;;;;;133.50;34.17;;;2.60;99.90;;;;;;5014677;28;20714;-69
2021/12/03 03:41:48;;;;;;;115.10;33.17;;;2.70;99.90;;;;;;5013430;28;20291;-69
2021/12/03 03:44:15;;;;;;;123.97;34.67;;;2.70;99.90;;;;;;5013259;28;20271;-69
2021/12/03 03:46:43;;;;;;;114.73;31.23;;;2.70;99.90;;;;;;5013247;28;20214;-69
2021/12/03 03:49:12;;;;;;;122.30;32.90;;;2.80;99.90;;;;;;5013408;28;20400;-69
2021/12/03 03:51:39;;;;;;;115.10;31.30;;;2.80;99.90;;;;;;5011305;28;20210;-69
2021/12/03 03:54:06;;;;;;;103.73;31.90;;;2.80;99.90;;;;;;5012703;28;20218;-69
2021/12/03 03:56:34;;;;;;;120.07;32.33;;;2.80;99.90;;;;;;4991010;28;20225;-69
2021/12/03 03:59:01;;;;;;;121.43;33.47;;;2.80;99.90;;;;;;5013292;28;20233;-69
2021/12/03 04:01:28;;;;;;;115.20;30.77;;;2.80;99.90;;;;;;5012774;28;20217;-70
2021/12/03 04:03:55;;;;;;;120.10;32.43;;;2.90;99.90;;;;;;4991959;28;20221;-70
2021/12/03 04:06:23;;;;;;;124.10;32.53;;;2.90;99.90;;;;;;5012217;28;20233;-70
2021/12/03 04:08:50;;;;;;;118.43;32.50;;;2.90;99.90;;;;;;5013735;28;20931;-70
2021/12/03 04:11:21;;;;;;;126.03;35.37;;;2.90;99.90;;;;;;5013064;28;20831;-70
2021/12/03 04:13:48;;;;;;;117.10;35.33;;;2.90;99.90;;;;;;5012515;28;20222;-69
2021/12/03 04:16:16;;;;;;;124.17;35.20;;;2.90;99.90;;;;;;5012291;28;20213;-70
2021/12/03 04:18:43;;;;;;;131.87;36.07;;;2.90;99.90;;;;;;5012132;28;20244;-70
2021/12/03 04:21:10;;;;;;;109.87;32.67;;;2.90;99.90;;;;;;5013052;28;20198;-70
2021/12/03 04:23:38;;;;;;;113.47;34.37;;;2.90;99.90;;;;;;5011924;28;20599;-68
2021/12/03 04:26:05;;;;;;;104.90;29.83;;;2.90;99.90;;;;;;5012776;28;20707;-69
2021/12/03 04:28:32;;;;;;;120.07;31.90;;;2.90;99.90;;;;;;4993768;28;20809;-68
2021/12/03 04:30:59;;;;;;;112.43;30.37;;;3.00;99.90;;;;;;5012450;28;20230;-68
2021/12/03 04:33:26;;;;;;;113.40;30.67;;;3.00;99.90;;;;;;5011850;28;20262;-69
2021/12/03 04:35:53;;;;;;;68.07;20.47;;;3.00;99.90;;;;;;5012607;28;20218;-68
2021/12/03 04:38:21;;;;;;;82.07;25.10;;;3.00;99.90;;;;;;5012426;28;20588;-68
2021/12/03 04:40:49;;;;;;;77.10;24.17;;;3.00;99.90;;;;;;5012374;28;20941;-69
2021/12/03 04:43:16;;;;;;;104.70;28.63;;;2.90;99.90;;;;;;5012288;28;20229;-69
2021/12/03 04:45:43;;;;;;;63.87;19.47;;;2.90;99.90;;;;;;5012454;28;20222;-70
2021/12/03 04:48:10;;;;;;;84.23;23.90;;;2.90;99.90;;;;;;5012918;28;20309;-70
2021/12/03 04:50:40;;;;;;;95.87;28.93;;;3.00;99.90;;;;;;5012943;28;20237;-70
2021/12/03 04:53:07;;;;;;;100.73;28.13;;;3.00;99.90;;;;;;5013600;28;20709;-69
2021/12/03 04:55:35;;;;;;;83.40;26.67;;;3.00;99.90;;;;;;5012793;28;20214;-70
2021/12/03 04:58:04;;;;;;;93.57;27.03;;;3.00;99.90;;;;;;5013092;28;20244;-69
2021/12/03 05:00:33;;;;;;;97.20;29.00;;;3.10;99.90;;;;;;5012932;28;20210;-69
2021/12/03 05:03:00;;;;;;;92.83;29.67;;;3.10;99.90;;;;;;5011069;28;20592;-70
2021/12/03 05:05:31;;;;;;;91.87;27.37;;;3.10;99.90;;;;;;5012441;28;20214;-70
2021/12/03 05:08:01;;;;;;;89.17;28.47;;;3.20;99.90;;;;;;5011398;28;20237;-70
2021/12/03 05:10:30;;;;;;;98.03;28.47;;;3.20;99.90;;;;;;5011725;28;20229;-70
2021/12/03 05:13:01;;;;;;;94.23;27.77;;;3.20;99.90;;;;;;5012743;28;20296;-70
2021/12/03 05:15:29;;;;;;;82.70;27.57;;;3.20;99.90;;;;;;5011948;28;20297;-70
2021/12/03 05:17:56;;;;;;;78.87;27.80;;;3.20;99.90;;;;;;5012778;28;20239;-70
2021/12/03 05:20:23;;;;;;;89.20;28.10;;;3.20;99.90;;;;;;5010153;28;20665;-71
2021/12/03 05:22:53;;;;;;;74.87;23.90;;;3.20;99.90;;;;;;5011679;28;20209;-70
2021/12/03 05:25:22;;;;;;;82.07;26.60;;;3.20;99.90;;;;;;5013437;28;20721;-70
2021/12/03 05:27:50;;;;;;;85.33;27.50;;;3.20;99.90;;;;;;4994426;28;20233;-70
2021/12/03 05:30:18;;;;;;;88.00;28.13;;;3.20;99.90;;;;;;5010831;28;20292;-70
2021/12/03 05:32:47;;;;;;;103.03;30.67;;;3.20;99.90;;;;;;5010791;28;20212;-69
2021/12/03 05:35:15;;;;;;;86.10;28.67;;;3.30;99.90;;;;;;5010870;28;20237;-69
2021/12/03 05:37:42;;;;;;;92.93;27.90;;;3.30;99.90;;;;;;5012323;28;20261;-69
2021/12/03 05:40:11;;;;;;;89.43;25.53;;;3.30;99.90;;;;;;5010993;28;20214;-69
2021/12/03 05:42:39;;;;;;;85.03;27.57;;;3.40;99.90;;;;;;5006980;28;20653;-73
2021/12/03 05:45:08;;;;;;;85.33;26.83;;;3.40;99.90;;;;;;5010936;28;20214;-71
2021/12/03 05:47:35;;;;;;;81.00;23.77;;;3.40;99.90;;;;;;5008757;28;20241;-72
2021/12/03 05:50:05;;;;;;;98.07;28.63;;;3.50;99.90;;;;;;5011979;28;20586;-71
2021/12/03 05:52:32;;;;;;;78.37;24.57;;;3.50;99.90;;;;;;5011096;28;20338;-72
2021/12/03 05:54:59;;;;;;;86.77;24.30;;;3.50;99.90;;;;;;5010816;28;20222;-72
2021/12/03 05:57:26;;;;;;;92.97;25.70;;;3.50;99.90;;;;;;5012206;28;20732;-72
2021/12/03 05:59:53;;;;;;;102.37;28.93;;;3.50;99.90;;;;;;5011096;28;20214;-71
2021/12/03 06:02:20;;;;;;;86.30;25.07;;;3.50;99.90;;;;;;5011579;28;20219;-72
2021/12/03 06:04:47;;;;;;;91.53;25.53;;;3.50;99.90;;;;;;5011566;28;20293;-72
2021/12/03 06:07:16;;;;;;;109.40;27.00;;;3.60;99.90;;;;;;5011914;28;20218;-72
2021/12/03 06:09:45;;;;;;;96.73;26.63;;;3.60;99.90;;;;;;5011512;28;20225;-71
2021/12/03 06:12:12;;;;;;;72.03;20.73;;;3.60;99.90;;;;;;5011419;28;20241;-72
2021/12/03 06:14:39;;;;;;;121.83;28.40;;;3.60;99.90;;;;;;5014736;28;20213;-71
2021/12/03 06:17:06;;;;;;;122.37;28.57;;;4.20;99.90;;;;;;5016938;28;20608;-72
2021/12/03 06:19:33;;;;;;;117.20;29.33;;;3.60;99.90;;;;;;5016090;28;20209;-72
2021/12/03 06:22:00;;;;;;;82.17;21.83;;;3.60;99.90;;;;;;5015882;28;20214;-72
2021/12/03 06:24:28;;;;;;;118.07;27.80;;;3.60;99.90;;;;;;5015873;28;20209;-73
2021/12/03 06:26:55;;;;;;;115.73;27.17;;;3.60;99.90;;;;;;5016815;28;20732;-72
2021/12/03 06:29:22;;;;;;;109.20;27.80;;;3.70;99.90;;;;;;4997254;28;20282;-72
2021/12/03 06:31:49;;;;;;;126.97;31.43;;;3.70;99.90;;;;;;5014778;28;20747;-72
2021/12/03 06:34:16;;;;;;;100.83;24.60;;;3.70;99.90;;;;;;5015729;28;20236;-72
2021/12/03 06:36:43;;;;;;;123.30;30.83;;;3.70;99.90;;;;;;5012389;28;20214;-72
2021/12/03 06:39:10;;;;;;;105.37;25.73;;;3.70;99.90;;;;;;5015101;28;20226;-72
2021/12/03 06:41:38;;;;;;;142.43;33.50;;;3.70;99.90;;;;;;5013278;28;20214;-73
2021/12/03 06:44:08;;;;;;;97.37;27.27;;;3.70;99.90;;;;;;4991623;28;20224;-72
2021/12/03 06:46:35;;;;;;;113.57;30.37;;;3.80;99.90;;;;;;5010560;28;20211;-71
2021/12/03 06:49:02;;;;;;;103.17;28.00;;;3.80;99.90;;;;;;5008149;28;20249;-74
2021/12/03 06:51:30;;;;;;;116.20;31.03;;;3.80;99.90;;;;;;5006572;28;20751;-74
2021/12/03 06:54:00;;;;;;;125.10;30.97;;;3.90;99.90;;;;;;5016565;28;20267;-74
2021/12/03 06:56:33;;;;;;;107.27;27.80;;;3.90;99.90;;;;;;5015757;28;20225;-75
2021/12/03 06:59:01;;;;;;;134.67;32.20;;;3.90;99.90;;;;;;5017661;28;20620;-75
2021/12/03 07:01:28;;;;;;;142.00;31.77;;;4.00;99.90;;;;;;5018715;28;20212;-75
2021/12/03 07:03:55;;;;;;;138.33;32.00;;;3.90;99.90;;;;;;5019354;28;20201;-74
2021/12/03 07:06:22;;;;;;;123.97;30.70;;;4.00;99.90;;;;;;5019106;28;20889;-73
2021/12/03 07:08:50;;;;;;;129.40;30.37;;;4.00;99.90;;;;;;5015833;28;20640;-72
2021/12/03 07:11:17;;;;;;;100.77;26.20;;;4.00;99.90;;;;;;5017239;28;20222;-73
2021/12/03 07:13:44;;;;;;;134.60;31.60;;;4.10;99.90;;;;;;5018765;28;20229;-73
2021/12/03 07:16:12;;;;;;;115.63;31.07;;;4.10;99.90;;;;;;5017343;28;20214;-74
2021/12/03 07:18:39;;;;;;;126.50;31.93;;;4.10;99.90;;;;;;5018553;28;20234;-72
2021/12/03 07:21:06;;;;;;;113.27;27.63;;;4.00;99.90;;;;;;4997212;28;20255;-73
2021/12/03 07:23:33;;;;;;;149.10;32.63;;;4.10;99.90;;;;;;5015235;28;20209;-72
2021/12/03 07:26:02;;;;;;;138.77;34.43;;;4.10;99.90;;;;;;5017288;28;20597;-73
2021/12/03 07:28:29;;;;;;;104.17;25.30;;;4.10;99.90;;;;;;5022074;28;20253;-73
2021/12/03 07:30:56;;;;;;;122.67;32.93;;;4.10;99.90;;;;;;5022260;28;20234;-74
2021/12/03 07:33:25;;;;;;;125.83;31.53;;;4.10;99.90;;;;;;5020306;28;20205;-74
2021/12/03 07:35:52;;;;;;;100.80;26.97;;;4.00;99.90;;;;;;5019764;28;20216;-75
2021/12/03 07:38:19;;;;;;;106.93;29.93;;;4.10;99.90;;;;;;5021527;28;20308;-75
2021/12/03 07:40:47;;;;;;;80.70;21.80;;;4.00;99.90;;;;;;5023905;28;20218;-75
2021/12/03 07:43:16;;;;;;;104.90;27.37;;;4.10;99.90;;;;;;5015094;28;20236;-73
2021/12/03 07:45:43;;;;;;;113.40;29.73;;;4.00;99.90;;;;;;5019705;28;20217;-73
2021/12/03 07:48:10;;;;;;;107.97;27.73;;;4.00;99.90;;;;;;5016417;28;20237;-71
2021/12/03 07:50:39;;;;;;;114.67;28.00;;;4.10;99.90;;;;;;5020717;28;20228;-72
2021/12/03 07:53:08;;;;;;;94.00;26.43;;;4.10;99.90;;;;;;5017163;28;20210;-72
2021/12/03 07:55:35;;;;;;;99.17;24.03;;;4.10;99.90;;;;;;5020257;28;20372;-70
2021/12/03 07:58:05;;;;;;;100.50;25.47;;;4.10;99.90;;;;;;5015516;28;20340;-71
2021/12/03 08:00:32;;;;;;;82.90;23.77;;;4.00;99.90;;;;;;5024389;28;20202;-72
2021/12/03 08:02:59;;;;;;;97.07;23.47;;;4.10;99.90;;;;;;5025584;28;20212;-71
2021/12/03 08:05:26;;;;;;;89.20;23.73;;;4.10;99.90;;;;;;5024075;28;20213;-72
2021/12/03 08:07:54;;;;;;;64.77;19.33;;;4.10;99.90;;;;;;5023667;28;20579;-73
2021/12/03 08:10:21;;;;;;;69.50;18.43;;;4.10;99.90;;;;;;5019329;28;20209;-72
2021/12/03 08:12:48;;;;;;;76.20;19.33;;;4.10;99.90;;;;;;5024789;28;20751;-73
2021/12/03 08:15:17;;;;;;;64.67;16.77;;;4.10;99.90;;;;;;5026590;28;20214;-73
2021/12/03 08:17:47;;;;;;;71.53;18.23;;;4.10;99.90;;;;;;5024025;28;20307;-73
2021/12/03 08:20:14;;;;;;;59.33;16.60;;;4.10;99.90;;;;;;5022671;28;20210;-74
2021/12/03 08:22:43;;;;;;;69.70;16.93;;;4.20;99.90;;;;;;5007646;28;20217;-74
2021/12/03 08:25:12;;;;;;;67.57;17.43;;;4.30;99.90;;;;;;5028419;28;20264;-73
2021/12/03 08:27:40;;;;;;;67.63;15.93;;;4.30;99.90;;;;;;5008127;28;20232;-72
2021/12/03 08:30:11;;;;;;;65.67;16.67;;;4.40;99.90;;;;;;5026766;28;20388;-72
2021/12/03 08:32:38;;;;;;;65.97;15.77;;;4.40;99.90;;;;;;5020315;28;20210;-73
2021/12/03 08:35:05;;;;;;;71.20;15.90;;;4.40;99.90;;;;;;5012379;28;20214;-72
2021/12/03 08:37:32;;;;;;;68.13;14.70;;;4.40;99.90;;;;;;5015635;28;20230;-73
2021/12/03 08:39:59;;;;;;;58.87;13.90;;;4.40;99.90;;;;;;5023504;28;20203;-73
2021/12/03 08:42:27;;;;;;;57.87;14.80;;;4.40;99.90;;;;;;5019232;28;20214;-73
2021/12/03 08:44:54;;;;;;;52.50;13.10;;;4.40;99.90;;;;;;5015663;28;20289;-73
2021/12/03 08:47:21;;;;;;;59.97;14.97;;;4.50;99.90;;;;;;5019827;28;20237;-72
2021/12/03 08:49:51;;;;;;;49.27;13.10;;;4.50;99.90;;;;;;5024318;28;20205;-72
2021/12/03 08:52:45;;;;;;;63.30;14.33;;;4.60;99.90;;;;;;5023088;28;20229;-73
2021/12/03 08:55:11;;;;;;;64.07;15.40;;;4.60;99.90;;;;;;4993570;28;20294;-70
2021/12/03 08:57:40;;;;;;;64.77;16.20;;;4.70;99.90;;;;;;5011020;28;20227;-71
2021/12/03 09:00:11;;;;;;;62.97;15.37;;;4.70;99.90;;;;;;5015749;28;20230;-71
2021/12/03 09:02:38;;;;;;;53.77;13.93;;;4.70;99.90;;;;;;5005990;28;20756;-72
2021/12/03 09:05:05;;;;;;;57.37;14.20;;;4.80;99.90;;;;;;5011815;28;20213;-72
2021/12/03 09:07:32;;;;;;;56.87;15.07;;;4.90;99.90;;;;;;5017041;28;20602;-71
2021/12/03 09:09:59;;;;;;;50.80;12.77;;;5.00;99.90;;;;;;5013559;28;20213;-71
2021/12/03 09:12:27;;;;;;;49.97;12.63;;;5.10;99.90;;;;;;5016847;28;20231;-72
2021/12/03 09:14:57;;;;;;;55.73;13.73;;;5.10;99.90;;;;;;5013934;28;20223;-72
2021/12/03 09:17:36;;;;;;;60.17;13.00;;;5.10;99.90;;;;;;5015827;28;20616;-72
2021/12/03 09:20:14;;;;;;;45.17;11.57;;;5.10;99.90;;;;;;5009487;28;20214;-72
2021/12/03 09:22:43;;;;;;;47.93;12.03;;;5.10;99.90;;;;;;5014578;28;20225;-73
2021/12/03 09:25:13;;;;;;;69.80;17.40;;;5.20;99.90;;;;;;5011451;28;20243;-73
2021/12/03 09:27:40;;;;;;;53.87;12.53;;;5.20;99.90;;;;;;5011663;28;20387;-74
2021/12/03 09:30:14;;;;;;;43.43;10.67;;;5.20;99.90;;;;;;5003356;28;20280;-73
2021/12/03 09:32:42;;;;;;;47.03;12.20;;;5.30;99.90;;;;;;5013137;28;20360;-73
2021/12/03 09:35:10;;;;;;;61.07;14.73;;;5.30;99.90;;;;;;5013800;28;20306;-74
2021/12/03 09:37:37;;;;;;;58.97;13.67;;;5.30;99.90;;;;;;5007642;28;20245;-72
2021/12/03 09:40:06;;;;;;;47.43;11.07;;;5.30;99.90;;;;;;5016122;28;20214;-73
2021/12/03 09:42:36;;;;;;;67.13;14.53;;;5.30;99.90;;;;;;5007061;28;20690;-73
2021/12/03 09:45:06;;;;;;;53.57;12.37;;;5.30;99.90;;;;;;5011739;28;20214;-73
2021/12/03 09:47:34;;;;;;;52.83;13.17;;;5.40;99.90;;;;;;5013296;28;20235;-73
2021/12/03 09:50:04;;;;;;;52.83;14.00;;;5.50;99.90;;;;;;5018553;28;20697;-72
2021/12/03 09:52:41;;;;;;;50.20;11.37;;;5.60;99.90;;;;;;5012487;28;20239;-72
2021/12/03 09:55:10;;;;;;;52.00;13.00;;;5.60;99.90;;;;;;5020314;28;20210;-70
2021/12/03 09:57:41;;;;;;;46.73;10.87;;;5.70;99.90;;;;;;5019106;28;20287;-71
2021/12/03 10:03:14;;;;;;;43.93;10.77;;;5.80;99.90;;;;;;5018242;28;20304;-73
2021/12/03 10:14:14;;;;;;;38.80;9.80;;;5.90;99.90;;;;;;5019982;28;20292;-74
2021/12/03 10:17:18;;;;;;;49.63;11.23;;;6.00;99.90;;;;;;5018720;28;20319;-72
2021/12/03 10:19:55;;;;;;;46.57;10.53;;;6.10;99.90;;;;;;5025621;28;20238;-71
2021/12/03 10:22:36;;;;;;;36.87;8.60;;;6.40;99.90;;;;;;5026733;28;20226;-74
2021/12/03 10:28:16;;;;;;;43.67;9.73;;;6.60;99.90;;;;;;5018289;28;20237;-74
2021/12/03 10:33:58;;;;;;;24.77;7.67;;;6.70;99.90;;;;;;4980041;28;20223;-74
2021/12/03 10:36:48;;;;;;;38.27;9.17;;;6.80;99.90;;;;;;5024721;28;20214;-74
2021/12/03 10:39:25;;;;;;;39.13;9.47;;;6.80;99.90;;;;;;5024553;28;20239;-75
2021/12/03 10:42:01;;;;;;;39.07;8.70;;;6.80;99.90;;;;;;5021176;28;20734;-73
2021/12/03 10:44:42;;;;;;;33.97;7.57;;;6.70;99.90;;;;;;5022683;28;20209;-72
2021/12/03 10:47:30;;;;;;;34.40;8.20;;;6.40;99.90;;;;;;5021651;28;20256;-72
2021/12/03 10:50:06;;;;;;;40.37;10.13;;;6.50;99.90;;;;;;5025172;28;20213;-71
2021/12/03 10:52:49;;;;;;;36.73;8.03;;;6.50;99.90;;;;;;5025692;28;20336;-72
2021/12/03 10:58:32;;;;;;;28.83;7.23;;;6.50;99.90;;;;;;5019568;28;20235;-74
2021/12/03 11:29:21;;;;;;;25.90;7.17;;;5.70;99.90;;;;;;5023776;28;20226;-73
2021/12/03 11:58:51;;;;;;;34.23;7.70;;;6.10;99.90;;;;;;5010934;28;20237;-71
2021/12/03 12:19:31;;;;;;;33.03;8.93;;;6.30;99.90;;;;;;5002490;28;20326;-71
2021/12/03 13:11:18;;;;;;;24.73;6.93;;;6.90;99.90;;;;;;4963324;28;20866;-71
2021/12/03 13:22:37;;;;;;;25.73;6.20;;;7.00;99.90;;;;;;5007700;28;20202;-71
2021/12/03 14:07:41;;;;;;;20.80;5.50;;;6.60;99.90;;;;;;5015656;28;20224;-71
2021/12/03 14:38:44;;;;;;;22.50;6.27;;;6.30;99.90;;;;;;5002944;28;20245;-71
2021/12/03 14:41:39;;;;;;;25.67;7.13;;;6.20;99.90;;;;;;5002861;28;20214;-72
2021/12/03 14:44:15;;;;;;;24.27;6.63;;;6.20;99.90;;;;;;5001286;28;20249;-72
2021/12/03 14:47:01;;;;;;;26.07;7.20;;;6.10;99.90;;;;;;5003562;28;20214;-71
2021/12/03 14:49:44;;;;;;;29.07;7.33;;;6.00;99.90;;;;;;5003966;28;20223;-71
2021/12/03 14:52:20;;;;;;;23.53;6.97;;;5.90;99.90;;;;;;5002187;28;20236;-71
2021/12/03 14:54:53;;;;;;;24.47;6.50;;;5.80;99.90;;;;;;5004293;28;20221;-71
2021/12/03 14:57:30;;;;;;;29.33;7.33;;;5.50;99.90;;;;;;5007913;28;20210;-70
2021/12/03 15:00:12;;;;;;;26.27;6.47;;;5.50;99.90;;;;;;5008752;28;20781;-70
2021/12/03 15:02:59;;;;;;;27.50;6.23;;;5.40;99.90;;;;;;5010353;28;20206;-71
2021/12/03 15:05:45;;;;;;;22.63;6.10;;;5.30;99.90;;;;;;5017608;28;20216;-70
2021/12/03 15:08:16;;;;;;;19.50;5.87;;;5.20;99.90;;;;;;5014691;28;20234;-70
2021/12/03 15:11:02;;;;;;;24.80;7.07;;;5.10;99.90;;;;;;5014746;28;20577;-71
2021/12/03 15:19:23;;;;;;;25.87;6.67;;;4.90;99.90;;;;;;5016270;28;20228;-71
2021/12/03 15:24:54;;;;;;;26.07;7.13;;;4.80;99.90;;;;;;5016212;28;20678;-72
2021/12/03 15:27:46;;;;;;;23.37;6.63;;;4.80;99.90;;;;;;5015414;28;20231;-72
2021/12/03 15:30:26;;;;;;;29.20;7.73;;;4.80;99.90;;;;;;5014096;28;20712;-73
2021/12/03 15:32:57;;;;;;;28.00;7.60;;;4.80;99.90;;;;;;5011636;28;20509;-72
2021/12/03 15:35:30;;;;;;;26.73;6.90;;;4.70;99.90;;;;;;5012494;28;20241;-71
2021/12/03 15:38:23;;;;;;;23.10;6.23;;;4.70;99.90;;;;;;5014204;28;20692;-74
2021/12/03 15:57:42;;;;;;;32.30;7.87;;;5.00;99.90;;;;;;5009753;28;20284;-72
2021/12/03 16:08:28;;;;;;;24.50;6.53;;;5.10;99.90;;;;;;4960316;28;20292;-73
2021/12/03 16:11:04;;;;;;;22.13;6.30;;;5.20;99.90;;;;;;5012420;28;20210;-71
2021/12/03 16:13:43;;;;;;;25.80;6.77;;;5.20;99.90;;;;;;5010374;28;20350;-73
2021/12/03 16:19:07;;;;;;;25.17;6.37;;;5.30;99.90;;;;;;5017134;28;20239;-73
2021/12/03 16:43:49;;;;;;;33.33;6.73;;;5.20;99.90;;;;;;5019416;28;20203;-73
2021/12/03 16:52:00;;;;;;;33.03;8.40;;;5.30;99.90;;;;;;4904531;29;20256;-72
2021/12/03 16:54:30;;;;;;;26.63;7.13;;;5.30;99.90;;;;;;4904932;29;20265;-72
2021/12/03 16:56:57;;;;;;;31.33;8.47;;;5.30;99.90;;;;;;4938847;28;20218;-72
2021/12/03 16:59:25;;;;;;;38.30;9.70;;;5.30;99.90;;;;;;4996703;28;20944;-72
2021/12/03 17:02:01;;;;;;;33.60;8.53;;;5.30;99.90;;;;;;4999829;28;20262;-74
2021/12/03 17:04:41;;;;;;;29.80;8.17;;;5.30;99.90;;;;;;4997119;28;20296;-72
2021/12/03 17:13:06;;;;;;;34.57;9.10;;;5.20;99.90;;;;;;4987479;28;20237;-72
2021/12/03 17:16:11;;;;;;;44.00;10.80;;;5.20;99.90;;;;;;4996573;28;20209;-72
2021/12/03 17:30:10;;;;;;;30.63;7.67;;;5.00;99.90;;;;;;5002561;28;20210;-72
2021/12/03 17:47:07;;;;;;;31.63;7.97;;;;;;;;;;5011039;28;20290;-73
2021/12/03 17:49:43;;;;;;;26.67;6.70;;;4.80;99.90;;;;;;5010710;28;20233;-70
2021/12/03 17:57:46;;;;;;;50.53;11.83;;;4.80;99.90;;;;;;5007026;28;20242;-72
2021/12/03 18:00:19;;;;;;;27.17;7.03;;;4.80;99.90;;;;;;5010462;28;20210;-73
2021/12/03 18:02:48;;;;;;;23.37;6.93;;;4.80;99.90;;;;;;5011459;28;20217;-71
2021/12/03 18:05:44;;;;;;;28.60;7.57;;;4.70;99.90;;;;;;5010712;28;20217;-72
2021/12/03 18:08:16;;;;;;;24.20;6.53;;;4.70;99.90;;;;;;5011928;28;20222;-71
2021/12/03 18:44:21;;;;;;;23.63;6.63;;;4.70;99.90;;;;;;5016475;28;20244;-75
2021/12/03 18:47:30;;;;;;;26.80;8.63;;;4.70;99.90;;;;;;5016000;28;20613;-75
2021/12/03 18:52:58;;;;;;;37.70;12.87;;;4.70;99.90;;;;;;4958169;28;20790;-76
2021/12/03 18:55:32;;;;;;;26.73;9.20;;;4.70;99.90;;;;;;5017369;28;20221;-76
2021/12/03 18:58:03;;;;;;;27.70;8.43;;;4.70;99.90;;;;;;5015287;28;20271;-75
2021/12/03 19:00:33;;;;;;;29.43;8.17;;;4.60;99.90;;;;;;5014210;28;20657;-75
2021/12/03 19:03:04;;;;;;;29.27;10.13;;;4.60;99.90;;;;;;5012688;28;20238;-75
2021/12/03 19:05:41;;;;;;;31.07;9.93;;;4.60;99.90;;;;;;5016647;28;20221;-74
2021/12/03 19:08:12;;;;;;;21.17;6.43;;;4.60;99.90;;;;;;5016649;28;20791;-75
2021/12/03 19:10:44;;;;;;;30.40;10.17;;;4.60;99.90;;;;;;5016442;28;21634;-74
2021/12/03 19:13:16;;;;;;;27.50;10.43;;;4.60;99.90;;;;;;5014741;28;20248;-75
2021/12/03 19:15:44;;;;;;;27.03;9.77;;;4.60;99.90;;;;;;5016067;28;20701;-74
2021/12/03 19:18:11;;;;;;;28.50;10.30;;;4.70;99.90;;;;;;5015652;28;20260;-75